createdAt,value
2023-01-19T00:02:16.016Z,99861.41
2023-01-19T00:06:27.017Z,99864.30
2023-01-19T00:10:38.396Z,99871.42
2023-01-19T00:14:50.817Z,99874.30
2023-01-19T00:19:02.896Z,99886.17
2023-01-19T00:23:15.494Z,99890.29
2023-01-19T00:27:27.291Z,99893.62
2023-01-19T00:31:34.121Z,99899.63
2023-01-19T00:35:46.657Z,99902.67
2023-01-19T00:39:59.352Z,99898.15
2023-01-19T00:44:11.205Z,99899.67
2023-01-19T00:48:25.710Z,99904.03
2023-01-19T00:52:37.775Z,99912.98
2023-01-19T00:56:49.919Z,99917.46
2023-01-19T01:00:53.927Z,99918.48
2023-01-19T01:05:00.907Z,99924.84
2023-01-19T01:09:13.143Z,99930.38
2023-01-19T01:13:27.526Z,99939.20
2023-01-19T01:17:42.211Z,99944.55
2023-01-19T01:21:54.310Z,99951.79
2023-01-19T01:26:04.495Z,99959.63
2023-01-19T01:30:16.598Z,99965.93
2023-01-19T01:38:45.573Z,99978.80
2023-01-19T01:42:58.233Z,99987.21
2023-01-19T01:47:10.949Z,99996.80
2023-01-19T01:51:24.371Z,100006.70
2023-01-19T01:55:36.872Z,100014.34
2023-01-19T01:59:49.078Z,100011.85
2023-01-19T02:04:01.441Z,100008.66
2023-01-19T02:08:24.259Z,100007.25
2023-01-19T02:12:34.320Z,100012.95
2023-01-19T02:16:46.813Z,100021.45
2023-01-19T02:20:58.718Z,100028.17
2023-01-19T02:25:10.659Z,100035.64
2023-01-19T02:29:22.296Z,100041.55
2023-01-19T02:33:34.338Z,100048.80
2023-01-19T02:37:46.445Z,100050.19
2023-01-19T02:41:47.521Z,100045.69
2023-01-19T02:46:02.503Z,100041.77
2023-01-19T02:50:15.412Z,100046.86
2023-01-19T02:54:39.742Z,100056.48
2023-01-19T02:59:04.096Z,100060.44
2023-01-19T03:03:14.207Z,100062.30
2023-01-19T03:07:48.216Z,100065.73
2023-01-19T03:12:00.149Z,100067.39
2023-01-19T03:16:07.273Z,100073.20
2023-01-19T03:20:19.536Z,100071.11
2023-01-19T03:24:31.956Z,100077.95
2023-01-19T03:28:43.964Z,100084.71
2023-01-19T03:32:55.999Z,100088.20
2023-01-19T03:37:08.132Z,100089.42
2023-01-19T03:41:15.999Z,100091.79
2023-01-19T03:45:28.374Z,100098.23
2023-01-19T03:49:40.613Z,100101.38
2023-01-19T03:53:52.941Z,100104.36
2023-01-19T03:57:59.432Z,100115.84
2023-01-19T04:02:44.453Z,100123.84
2023-01-19T04:06:56.101Z,100130.88
2023-01-19T04:11:40.961Z,100137.27
2023-01-19T04:15:52.726Z,100135.38
2023-01-19T04:20:06.715Z,100135.77
2023-01-19T04:24:19.120Z,100146.15
2023-01-19T04:28:34.440Z,100143.11
2023-01-19T04:32:46.392Z,100146.06
2023-01-19T04:36:58.255Z,100155.52
2023-01-19T04:41:10.378Z,100160.04
2023-01-19T04:45:22.459Z,100161.94
2023-01-19T04:49:35.502Z,100158.16
2023-01-19T04:53:47.352Z,100160.98
2023-01-19T04:57:59.425Z,100154.09
2023-01-19T05:02:11.567Z,100155.30
2023-01-19T05:06:24.880Z,100153.09
2023-01-19T05:10:55.607Z,100156.16
2023-01-19T05:15:07.232Z,100152.28
2023-01-19T05:19:19.616Z,100150.48
2023-01-19T05:23:26.092Z,100158.48
2023-01-19T05:27:31.365Z,100159.75
2023-01-19T05:31:43.854Z,100157.06
2023-01-19T05:36:10.212Z,100158.86
2023-01-19T05:40:22.657Z,100163.46
2023-01-19T05:44:34.759Z,100170.66
2023-01-19T05:48:48.295Z,100172.02
2023-01-19T05:53:00.616Z,100167.62
2023-01-19T05:57:12.760Z,100172.75
2023-01-19T06:01:15.895Z,100166.81
2023-01-19T06:05:29.015Z,100166.40
2023-01-19T06:09:41.204Z,100176.50
2023-01-19T06:13:52.775Z,100181.52
2023-01-19T06:18:14.130Z,100186.10
2023-01-19T06:22:21.957Z,100198.13
2023-01-19T06:26:48.106Z,100214.98
2023-01-19T06:31:00.088Z,100212.68
2023-01-19T06:35:12.384Z,100214.91
2023-01-19T06:39:24.688Z,100221.78
2023-01-19T06:43:36.773Z,100227.30
2023-01-19T06:47:49.076Z,100239.17
2023-01-19T06:51:54.333Z,100239.80
2023-01-19T06:56:25.535Z,100240.08
2023-01-19T07:00:32.261Z,100245.60
2023-01-19T07:04:57.881Z,100240.43
2023-01-19T07:09:10.346Z,100248.68
2023-01-19T07:13:22.241Z,100255.97
2023-01-19T07:17:34.238Z,100265.16
2023-01-19T07:21:46.295Z,100268.46
2023-01-19T07:25:58.276Z,100265.06
2023-01-19T07:30:24.193Z,100275.77
2023-01-19T07:34:30.758Z,100291.66
2023-01-19T07:38:43.202Z,100302.19
2023-01-19T07:43:09.592Z,100312.09
2023-01-19T07:47:21.632Z,100323.73
2023-01-19T07:51:46.781Z,100324.96
2023-01-19T07:55:51.110Z,100340.59
2023-01-19T08:00:03.278Z,100347.38
2023-01-19T08:04:15.706Z,100360.17
2023-01-19T08:08:28.033Z,100372.00
2023-01-19T08:12:41.129Z,100379.52
2023-01-19T08:17:12.033Z,100387.58
2023-01-19T08:21:22.811Z,100395.35
2023-01-19T08:25:34.951Z,100401.80
2023-01-19T08:29:47.335Z,100404.38
2023-01-19T08:33:59.259Z,100418.08
2023-01-19T08:38:11.870Z,100425.15
2023-01-19T08:42:23.988Z,100421.15
2023-01-19T08:46:39.241Z,100425.07
2023-01-19T08:50:44.409Z,100421.17
2023-01-19T08:54:56.218Z,100423.67
2023-01-19T08:59:09.903Z,100429.86
2023-01-19T09:03:42.715Z,100437.89
2023-01-19T09:07:54.568Z,100436.80
2023-01-19T09:12:06.897Z,100441.11
2023-01-19T09:16:13.952Z,100439.56
2023-01-19T09:20:28.174Z,100444.92
2023-01-19T09:24:35.286Z,100450.45
2023-01-19T09:28:46.686Z,100447.21
2023-01-19T09:32:59.757Z,100444.65
2023-01-19T09:37:11.888Z,100439.95
2023-01-19T09:41:23.985Z,100446.37
2023-01-19T09:45:55.211Z,100447.22
2023-01-19T09:50:07.149Z,100445.89
2023-01-19T09:54:31.200Z,100442.05
2023-01-19T09:58:43.731Z,100438.70
2023-01-19T10:02:54.504Z,100440.06
2023-01-19T10:07:07.246Z,100437.00
2023-01-19T10:11:18.628Z,100437.73
2023-01-19T10:15:30.577Z,100442.64
2023-01-19T10:19:43.722Z,100444.91
2023-01-19T10:23:55.312Z,100453.25
2023-01-19T10:28:02.057Z,100452.47
2023-01-19T10:32:14.500Z,100451.10
2023-01-19T10:36:26.344Z,100458.02
2023-01-19T10:40:52.548Z,100454.48
2023-01-19T10:45:04.563Z,100447.70
2023-01-19T10:49:11.059Z,100449.29
2023-01-19T10:53:23.294Z,100448.40
2023-01-19T10:57:35.539Z,100447.44
2023-01-19T11:01:54.277Z,100450.33
2023-01-19T11:06:07.412Z,100446.77
2023-01-19T11:10:19.152Z,100442.95
2023-01-19T11:14:43.654Z,100436.23
2023-01-19T11:18:58.930Z,100436.93
2023-01-19T11:23:11.281Z,100431.86
2023-01-19T11:27:29.231Z,100429.27
2023-01-19T11:31:41.681Z,100424.71
2023-01-19T11:35:52.793Z,100425.17
2023-01-19T11:40:04.894Z,100423.45
2023-01-19T11:44:17.161Z,100427.70
2023-01-19T11:48:23.981Z,100425.57
2023-01-19T11:52:43.159Z,100429.73
2023-01-19T11:56:56.558Z,100427.41
2023-01-19T12:01:09.496Z,100428.73
2023-01-19T12:05:22.157Z,100429.55
2023-01-19T12:09:33.007Z,100436.08
2023-01-19T12:13:45.261Z,100437.67
2023-01-19T12:18:09.676Z,100438.91
2023-01-19T12:22:22.134Z,100438.14
2023-01-19T12:26:39.717Z,100438.45
2023-01-19T12:30:48.959Z,100440.54
2023-01-19T12:35:07.028Z,100434.36
2023-01-19T12:39:25.396Z,100431.72
2023-01-19T12:43:37.756Z,100430.64
2023-01-19T12:47:55.944Z,100430.75
2023-01-19T12:52:02.566Z,100429.85
2023-01-19T12:56:17.823Z,100426.11
2023-01-19T13:00:30.686Z,100426.20
2023-01-19T13:04:45.774Z,100423.60
2023-01-19T13:08:57.983Z,100425.09
2023-01-19T13:13:10.348Z,100427.35
2023-01-19T13:17:36.870Z,100428.10
2023-01-19T13:26:34.298Z,100430.98
2023-01-19T13:30:52.748Z,100432.97
2023-01-19T13:35:05.692Z,100434.67
2023-01-19T13:39:10.492Z,100435.69
2023-01-19T13:43:22.883Z,100438.25
2023-01-19T13:47:33.204Z,100440.04
2023-01-19T13:51:38.158Z,100446.73
2023-01-19T13:55:45.234Z,100447.44
2023-01-19T13:59:52.973Z,100446.63
2023-01-19T14:03:52.477Z,100447.02
2023-01-19T14:08:04.747Z,100448.24
2023-01-19T14:12:11.324Z,100448.33
2023-01-19T14:16:25.938Z,100451.29
2023-01-19T14:20:38.254Z,100456.95
2023-01-19T14:24:50.329Z,100458.38
2023-01-19T14:29:08.899Z,100465.00
2023-01-19T14:33:20.972Z,100469.56
2023-01-19T14:37:33.428Z,100469.45
2023-01-19T14:41:46.334Z,100470.51
2023-01-19T14:45:53.433Z,100470.23
2023-01-19T14:50:06.178Z,100471.86
2023-01-19T14:54:18.527Z,100469.31
2023-01-19T14:58:30.879Z,100469.69
2023-01-19T15:02:48.614Z,100466.30
2023-01-19T15:07:00.901Z,100464.65
2023-01-19T15:11:26.760Z,100472.08
2023-01-19T15:15:38.515Z,100472.32
2023-01-19T15:19:50.751Z,100477.69
2023-01-19T15:24:02.922Z,100480.34
2023-01-19T15:28:23.293Z,100485.52
2023-01-19T15:32:35.589Z,100481.77
2023-01-19T15:36:47.804Z,100484.80
2023-01-19T15:40:59.838Z,100487.84
2023-01-19T15:45:12.045Z,100487.38
2023-01-19T15:49:24.459Z,100485.77
2023-01-19T15:53:37.000Z,100488.48
2023-01-19T15:57:48.953Z,100491.41
2023-01-19T16:02:01.313Z,100489.50
2023-01-19T16:10:40.302Z,100489.85
2023-01-19T16:14:52.802Z,100488.10
2023-01-19T16:19:05.096Z,100490.33
2023-01-19T16:23:20.640Z,100500.53
2023-01-19T16:27:33.369Z,100498.48
2023-01-19T16:31:45.778Z,100502.30
2023-01-19T16:35:58.332Z,100510.97
2023-01-19T16:40:03.967Z,100517.85
2023-01-19T16:44:09.539Z,100517.77
2023-01-19T16:48:16.518Z,100516.85
2023-01-19T16:52:28.284Z,100521.83
2023-01-19T16:56:40.311Z,100525.45
2023-01-19T17:00:35.261Z,100524.42
2023-01-19T17:04:48.115Z,100528.20
2023-01-19T17:09:00.885Z,100532.94
2023-01-19T17:13:00.378Z,100534.05
2023-01-19T17:17:12.662Z,100536.91
2023-01-19T17:21:17.952Z,100544.20
2023-01-19T17:25:29.860Z,100544.88
2023-01-19T17:29:42.044Z,100546.58
2023-01-19T17:33:54.105Z,100548.10
2023-01-19T17:38:25.072Z,100553.52
2023-01-19T17:42:37.319Z,100557.85
2023-01-19T17:46:49.582Z,100558.21
2023-01-19T17:51:01.860Z,100569.80
2023-01-19T17:55:12.119Z,100570.83
2023-01-19T17:59:37.967Z,100575.13
2023-01-19T18:04:17.836Z,100578.52
2023-01-19T18:08:22.100Z,100577.22
2023-01-19T18:12:34.089Z,100576.56
2023-01-19T18:16:46.266Z,100575.48
2023-01-19T18:20:58.314Z,100579.46
2023-01-19T18:25:10.401Z,100578.59
2023-01-19T18:29:22.258Z,100578.28
2023-01-19T18:33:28.862Z,100578.38
2023-01-19T18:37:40.766Z,100584.96
2023-01-19T18:41:55.644Z,100581.04
2023-01-19T18:46:08.035Z,100576.41
2023-01-19T18:50:20.594Z,100582.63
2023-01-19T18:54:33.021Z,100586.04
2023-01-19T18:58:45.282Z,100591.04
2023-01-19T19:02:57.459Z,100599.63
2023-01-19T19:07:09.138Z,100600.09
2023-01-19T19:11:40.471Z,100603.42
2023-01-19T19:15:52.152Z,100600.08
2023-01-19T19:20:04.235Z,100597.14
2023-01-19T19:24:16.956Z,100598.77
2023-01-19T19:28:33.041Z,100595.58
2023-01-19T19:32:45.535Z,100588.51
2023-01-19T19:36:58.108Z,100590.41
2023-01-19T19:41:12.027Z,100597.71
2023-01-19T19:45:20.399Z,100599.61
2023-01-19T19:49:26.356Z,100598.14
2023-01-19T19:53:39.001Z,100592.69
2023-01-19T19:57:51.096Z,100598.79
2023-01-19T20:02:06.619Z,100596.17
2023-01-19T20:06:12.700Z,100598.92
2023-01-19T20:10:17.667Z,100601.54
2023-01-19T20:14:24.197Z,100599.28
2023-01-19T20:18:33.374Z,100599.33
2023-01-19T20:22:42.159Z,100602.34
2023-01-19T20:26:54.203Z,100593.41
2023-01-19T20:31:01.478Z,100604.31
2023-01-19T20:35:13.611Z,100607.95
2023-01-19T20:39:24.543Z,100604.67
2023-01-19T20:43:36.606Z,100601.66
2023-01-19T20:47:40.830Z,100605.06
2023-01-19T20:51:45.612Z,100610.34
2023-01-19T20:55:57.775Z,100614.95
2023-01-19T21:00:10.160Z,100619.77
2023-01-19T21:04:41.698Z,100621.95
2023-01-19T21:08:52.778Z,100624.20
2023-01-19T21:13:05.260Z,100622.05
2023-01-19T21:17:17.461Z,100622.33
2023-01-19T21:21:31.385Z,100622.12
2023-01-19T21:25:36.623Z,100623.30
2023-01-19T21:29:42.687Z,100626.79
2023-01-19T21:33:54.836Z,100629.69
2023-01-19T21:38:06.777Z,100632.16
2023-01-19T21:42:19.116Z,100636.36
2023-01-19T21:46:30.924Z,100643.52
2023-01-19T21:50:56.709Z,100645.45
2023-01-19T21:55:04.841Z,100645.50
2023-01-19T21:59:19.621Z,100652.44
2023-01-19T22:03:32.335Z,100661.33
2023-01-19T22:07:36.388Z,100659.40
2023-01-19T22:11:48.868Z,100655.89
2023-01-19T22:16:19.895Z,100657.73
2023-01-19T22:20:31.207Z,100658.39
2023-01-19T22:24:45.818Z,100663.44
2023-01-19T22:28:52.624Z,100670.34
2023-01-19T22:33:04.652Z,100668.58
2023-01-19T22:37:10.148Z,100665.46
2023-01-19T22:41:22.637Z,100672.77
2023-01-19T22:45:34.959Z,100677.77
2023-01-19T22:49:46.912Z,100681.59
2023-01-19T22:53:52.039Z,100679.79
2023-01-19T22:58:04.177Z,100691.17
2023-01-19T23:02:18.585Z,100697.02
2023-01-19T23:06:31.936Z,100695.88
2023-01-19T23:10:43.897Z,100693.14
2023-01-19T23:14:56.263Z,100693.58
2023-01-19T23:19:27.107Z,100692.47
2023-01-19T23:23:39.309Z,100695.42
2023-01-19T23:27:51.877Z,100698.26
2023-01-19T23:32:04.563Z,100699.38
2023-01-19T23:36:17.218Z,100699.16
2023-01-19T23:40:22.378Z,100700.56
2023-01-19T23:44:34.380Z,100703.60
2023-01-19T23:48:47.429Z,100706.17
2023-01-19T23:52:59.987Z,100712.32
2023-01-19T23:57:20.410Z,100717.84
